createdAt,value
2023-02-19T00:03:20.901Z,1.66
2023-02-19T00:08:20.850Z,1.4
2023-02-19T00:13:20.848Z,1.44
2023-02-19T00:18:20.881Z,1.35
2023-02-19T00:23:20.913Z,1.3
2023-02-19T00:28:20.880Z,1.37
2023-02-19T00:33:20.893Z,1.37
2023-02-19T00:38:20.889Z,1.34
2023-02-19T00:43:20.899Z,1.35
2023-02-19T00:48:20.892Z,1.63
2023-02-19T00:53:20.938Z,1.87
2023-02-19T00:58:20.911Z,2.14
2023-02-19T01:03:20.872Z,2.49
2023-02-19T01:08:20.857Z,2.46
2023-02-19T01:13:20.930Z,2.29
2023-02-19T01:18:20.907Z,2.43
2023-02-19T01:23:20.873Z,2.39
2023-02-19T01:28:20.870Z,2.47
2023-02-19T01:33:20.875Z,2.12
2023-02-19T01:38:20.862Z,2.26
2023-02-19T01:43:20.889Z,2.56
2023-02-19T01:48:20.908Z,2.67
2023-02-19T01:53:20.915Z,2.55
2023-02-19T01:54:27.433Z,2.8
2023-02-19T01:59:27.410Z,2.73
2023-02-19T02:04:27.430Z,2.84
2023-02-19T02:09:27.398Z,2.77
2023-02-19T02:14:27.443Z,2.7
2023-02-19T02:19:27.392Z,2.81
2023-02-19T02:24:27.399Z,2.84
2023-02-19T02:29:27.411Z,2.85
2023-02-19T02:34:27.406Z,2.8
2023-02-19T02:39:27.448Z,2.61
2023-02-19T02:44:27.432Z,2.91
2023-02-19T02:49:27.419Z,2.97
2023-02-19T02:54:27.417Z,3.01
2023-02-19T02:59:27.421Z,3.08
2023-02-19T03:04:27.433Z,2.97
2023-02-19T03:09:27.410Z,2.74
2023-02-19T03:14:27.421Z,2.48
2023-02-19T03:19:27.425Z,2.61
2023-02-19T03:24:27.442Z,2.88
2023-02-19T03:29:27.431Z,2.81
2023-02-19T03:34:27.424Z,2.36
2023-02-19T03:39:27.432Z,2.64
2023-02-19T03:44:27.459Z,2.55
2023-02-19T03:49:27.478Z,2.45
2023-02-19T03:54:27.434Z,2.49
2023-02-19T03:59:27.466Z,2.47
2023-02-19T04:04:27.498Z,2.63
2023-02-19T04:09:27.468Z,2.23
2023-02-19T04:14:27.482Z,2.3
2023-02-19T04:19:27.451Z,2.61
2023-02-19T04:24:27.480Z,2.68
2023-02-19T04:29:27.509Z,2.71
2023-02-19T04:34:27.455Z,2.78
2023-02-19T04:39:27.447Z,2.76
2023-02-19T04:44:27.444Z,2.58
2023-02-19T04:49:27.447Z,2.57
2023-02-19T04:54:27.444Z,2.71
2023-02-19T04:59:27.487Z,2.44
2023-02-19T05:04:27.533Z,2.57
2023-02-19T05:09:27.473Z,2.41
2023-02-19T05:14:27.454Z,2.57
2023-02-19T05:19:27.460Z,2.54
2023-02-19T05:24:27.470Z,2.55
2023-02-19T05:29:27.490Z,2.23
2023-02-19T05:34:27.457Z,2.17
2023-02-19T05:39:27.481Z,1.82
2023-02-19T05:44:27.465Z,1.77
2023-02-19T05:49:27.506Z,2.06
2023-02-19T05:54:27.504Z,2.34
2023-02-19T05:59:27.516Z,2.14
2023-02-19T06:04:27.473Z,2.1
2023-02-19T06:09:27.492Z,2.67
2023-02-19T06:14:27.479Z,1.88
2023-02-19T06:19:27.500Z,2.53
2023-02-19T06:24:27.518Z,2.65
2023-02-19T06:29:27.513Z,2.36
2023-02-19T06:34:27.531Z,2.54
2023-02-19T06:39:27.535Z,2.49
2023-02-19T06:44:27.536Z,2.81
2023-02-19T06:49:27.514Z,2.98
2023-02-19T06:54:27.515Z,3.49
2023-02-19T06:59:27.546Z,6.52
2023-02-19T07:04:27.584Z,5.75
2023-02-19T07:09:27.565Z,6.44
2023-02-19T07:19:27.514Z,5.88
2023-02-19T07:22:01.715Z,6.88
2023-02-19T07:23:37.391Z,6.15
2023-02-19T07:28:37.483Z,5.54
2023-02-19T07:33:37.532Z,4.52
2023-02-19T07:36:08.375Z,4.18
2023-02-19T07:41:08.533Z,3.77
2023-02-19T07:44:47.211Z,3.87
2023-02-19T07:49:58.813Z,5.39
2023-02-19T07:55:19.606Z,4.58
2023-02-19T08:00:19.593Z,4.67
2023-02-19T08:05:19.627Z,2.4
2023-02-19T08:10:19.661Z,3.29
2023-02-19T08:15:21.556Z,2.1
2023-02-19T08:26:42.565Z,1.47
2023-02-19T08:31:42.723Z,1.54
2023-02-19T08:36:42.577Z,1.26
2023-02-19T08:41:42.611Z,1.4
2023-02-19T08:46:42.587Z,2.43
2023-02-19T08:55:36.990Z,2.79
2023-02-19T08:58:19.235Z,1.9
2023-02-19T09:03:19.298Z,2.49
2023-02-19T09:08:19.188Z,3.14
2023-02-19T09:13:19.246Z,2.97
2023-02-19T09:19:36.740Z,8.26
2023-02-19T09:24:36.675Z,8.2
2023-02-19T09:29:36.677Z,7.43
2023-02-19T09:35:40.530Z,8.61
2023-02-19T09:39:26.727Z,9
2023-02-19T09:44:27.102Z,7.21
2023-02-19T09:44:27.480Z,7.8
2023-02-19T09:52:18.548Z,11.44
2023-02-19T09:55:50.132Z,10.87
2023-02-19T10:00:50.078Z,9.62
2023-02-19T10:05:50.262Z,12.4
2023-02-19T10:10:50.160Z,9.01
2023-02-19T10:15:50.100Z,8.13
2023-02-19T10:20:50.134Z,8.19
2023-02-19T10:25:50.047Z,7.12
2023-02-19T10:30:50.064Z,5.77
2023-02-19T10:35:50.217Z,6.25
2023-02-19T10:37:52.221Z,5.67
2023-02-19T10:42:50.365Z,4.31
2023-02-19T10:47:50.376Z,7.06
2023-02-19T10:52:50.443Z,6.66
2023-02-19T10:57:50.399Z,5.77
2023-02-19T11:02:22.070Z,4.56
2023-02-19T11:04:27.532Z,5.06
2023-02-19T11:08:56.365Z,4.6
2023-02-19T11:13:56.520Z,5.19
2023-02-19T11:18:57.105Z,6.41
2023-02-19T11:23:56.420Z,10.16
2023-02-19T11:26:58.248Z,8.76
2023-02-19T11:29:38.934Z,6.08
2023-02-19T11:36:31.384Z,6.11
2023-02-19T11:43:11.870Z,4.91
2023-02-19T11:48:11.692Z,4.59
2023-02-19T11:53:11.994Z,4.05
2023-02-19T11:58:11.683Z,4.48
2023-02-19T12:03:11.660Z,4.09
2023-02-19T12:08:11.661Z,4.7
2023-02-19T12:13:11.698Z,8.05
2023-02-19T12:18:11.708Z,6.94
2023-02-19T12:23:11.664Z,11.54
2023-02-19T12:28:11.694Z,17.46
2023-02-19T12:33:11.660Z,8.51
2023-02-19T12:38:11.693Z,5.98
2023-02-19T12:43:11.667Z,5.02
2023-02-19T12:48:11.691Z,5.75
2023-02-19T12:53:11.670Z,5.71
2023-02-19T12:58:11.707Z,13.33
2023-02-19T13:03:11.734Z,11.84
2023-02-19T13:08:11.689Z,15.73
2023-02-19T13:13:11.713Z,8.29
2023-02-19T13:18:11.730Z,8.29
2023-02-19T13:23:11.716Z,6.17
2023-02-19T13:28:11.726Z,5.53
2023-02-19T13:33:11.771Z,5.2
2023-02-19T13:38:11.735Z,7.84
2023-02-19T13:43:11.763Z,8.88
2023-02-19T13:48:11.761Z,8.19
2023-02-19T13:53:11.752Z,5.06
2023-02-19T13:58:11.732Z,5.24
2023-02-19T14:03:11.937Z,5.44
2023-02-19T14:08:11.765Z,5.81
2023-02-19T14:13:11.736Z,7.28
2023-02-19T14:18:11.740Z,8.45
2023-02-19T14:23:11.734Z,6.86
2023-02-19T14:28:11.765Z,7.04
2023-02-19T14:33:11.742Z,11.63
2023-02-19T14:38:11.744Z,17.51
2023-02-19T14:43:11.747Z,10.89
2023-02-19T14:48:13.138Z,6.43
2023-02-19T14:53:11.744Z,9.13
2023-02-19T14:58:11.769Z,6.22
2023-02-19T15:03:11.750Z,6.71
2023-02-19T15:08:11.781Z,6.74
2023-02-19T15:13:11.742Z,6.54
2023-02-19T15:18:11.742Z,8.84
2023-02-19T15:23:11.760Z,13.29
2023-02-19T15:28:11.750Z,7.76
2023-02-19T15:33:11.746Z,9.15
2023-02-19T15:38:11.761Z,9.85
2023-02-19T15:43:11.770Z,13.35
2023-02-19T15:48:11.808Z,8.59
2023-02-19T15:53:11.807Z,16.2
2023-02-19T15:58:11.795Z,25.87
2023-02-19T16:03:11.782Z,24.38
2023-02-19T16:08:11.773Z,23.57
2023-02-19T16:13:11.778Z,20.66
2023-02-19T16:18:11.775Z,22
2023-02-19T16:23:11.791Z,21.65
2023-02-19T16:28:11.824Z,14.8
2023-02-19T16:33:11.773Z,12.21
2023-02-19T16:38:11.791Z,9.54
2023-02-19T16:43:11.796Z,9.55
2023-02-19T16:48:11.822Z,47.41
2023-02-19T16:53:11.790Z,16.93
2023-02-19T16:58:11.799Z,11.13
2023-02-19T17:03:11.797Z,10.03
2023-02-19T17:08:11.808Z,8.8
2023-02-19T17:13:11.825Z,8.27
2023-02-19T17:18:11.794Z,8.14
2023-02-19T17:23:11.806Z,8.25
2023-02-19T17:28:11.804Z,8.89
2023-02-19T17:33:11.808Z,9.11
2023-02-19T17:38:11.802Z,9.21
2023-02-19T17:43:11.804Z,9.15
2023-02-19T17:48:11.819Z,8.1
2023-02-19T17:53:11.845Z,8.52
2023-02-19T17:58:11.832Z,8.8
2023-02-19T18:03:11.843Z,8.72
2023-02-19T18:13:11.826Z,9.87
2023-02-19T18:18:11.829Z,8.79
2023-02-19T18:23:11.849Z,9.63
2023-02-19T18:28:11.849Z,8.68
2023-02-19T18:33:11.819Z,8.47
2023-02-19T18:38:11.828Z,9.39
2023-02-19T18:43:11.828Z,9.56
2023-02-19T18:48:11.828Z,11.6
2023-02-19T18:53:11.832Z,16.85
2023-02-19T18:58:11.832Z,9.08
2023-02-19T19:03:11.866Z,8.52
2023-02-19T19:08:11.872Z,8.8
2023-02-19T19:13:11.845Z,8.45
2023-02-19T19:18:11.834Z,8.45
2023-02-19T19:23:11.847Z,9.79
2023-02-19T19:28:11.875Z,8.75
2023-02-19T19:33:12.093Z,8.13
2023-02-19T19:38:11.850Z,7.94
2023-02-19T19:43:11.893Z,7.52
2023-02-19T19:48:11.892Z,7.38
2023-02-19T19:53:11.854Z,7.07
2023-02-19T19:58:11.877Z,7.14
2023-02-19T20:03:11.855Z,6.86
2023-02-19T20:08:11.856Z,6.97
2023-02-19T20:13:11.860Z,7.72
2023-02-19T20:18:11.898Z,7.78
2023-02-19T20:23:11.901Z,7.8
2023-02-19T20:28:11.869Z,6.48
2023-02-19T20:33:11.868Z,6.54
2023-02-19T20:38:11.867Z,6.46
2023-02-19T20:43:11.883Z,6.34
2023-02-19T20:48:11.869Z,6.62
2023-02-19T20:53:11.996Z,6.63
2023-02-19T20:57:46.081Z,6.6
2023-02-19T21:07:57.558Z,7.1
2023-02-19T21:16:19.070Z,8.12
2023-02-19T21:21:18.960Z,7.38
2023-02-19T21:26:18.968Z,7
2023-02-19T21:31:18.968Z,6.31
2023-02-19T21:36:18.937Z,6.74
2023-02-19T21:41:18.974Z,6.46
2023-02-19T21:43:19.452Z,6.25
2023-02-19T21:44:57.492Z,6.01
2023-02-19T21:49:54.161Z,5.94
2023-02-19T21:54:54.170Z,5.82
2023-02-19T21:59:54.173Z,5.91
2023-02-19T22:04:54.161Z,5.86
2023-02-19T22:09:54.288Z,5.99
2023-02-19T22:14:54.177Z,5.94
2023-02-19T22:19:54.162Z,6.27
2023-02-19T22:22:40.585Z,5.92
2023-02-19T22:27:40.640Z,6.14
2023-02-19T22:32:40.719Z,6.15
2023-02-19T22:37:40.598Z,6.13
2023-02-19T22:42:40.612Z,6.26
2023-02-19T22:47:30.804Z,6.04
2023-02-19T22:52:30.794Z,6.03
2023-02-19T22:57:30.854Z,5.72
2023-02-19T23:02:30.803Z,5.84
2023-02-19T23:07:30.822Z,5.67
2023-02-19T23:13:39.986Z,5.4
2023-02-19T23:18:39.962Z,5.53
2023-02-19T23:23:39.983Z,5.55
2023-02-19T23:28:39.976Z,5.59
2023-02-19T23:33:39.987Z,5.68
2023-02-19T23:38:39.967Z,5.85
2023-02-19T23:43:39.974Z,5.7
2023-02-19T23:48:39.985Z,5.79
2023-02-19T23:53:39.970Z,5.83
2023-02-19T23:58:39.985Z,5.8
